sensor_id;sensor_type;location;lat;lon;timestamp;P1;durP1;ratioP1;P2;durP2;ratioP2
34725;SDS011;20951;50.818;4.344;2023-04-30T00:02:01;19.13;;;14.35;;
34725;SDS011;20951;50.818;4.344;2023-04-30T00:04:27;20.33;;;13.52;;
34725;SDS011;20951;50.818;4.344;2023-04-30T00:06:53;20.52;;;13.95;;
34725;SDS011;20951;50.818;4.344;2023-04-30T00:09:19;19.15;;;13.35;;
34725;SDS011;20951;50.818;4.344;2023-04-30T00:11:46;18.85;;;13.10;;
34725;SDS011;20951;50.818;4.344;2023-04-30T00:14:11;18.02;;;13.40;;
34725;SDS011;20951;50.818;4.344;2023-04-30T00:16:37;17.80;;;13.07;;
34725;SDS011;20951;50.818;4.344;2023-04-30T00:19:03;17.67;;;12.10;;
34725;SDS011;20951;50.818;4.344;2023-04-30T00:21:30;19.02;;;12.27;;
34725;SDS011;20951;50.818;4.344;2023-04-30T00:23:57;17.60;;;12.48;;
34725;SDS011;20951;50.818;4.344;2023-04-30T00:26:24;16.05;;;12.10;;
34725;SDS011;20951;50.818;4.344;2023-04-30T00:28:51;15.40;;;11.55;;
34725;SDS011;20951;50.818;4.344;2023-04-30T00:31:16;14.60;;;11.50;;
34725;SDS011;20951;50.818;4.344;2023-04-30T00:33:42;15.77;;;11.23;;
34725;SDS011;20951;50.818;4.344;2023-04-30T00:36:08;15.73;;;11.15;;
34725;SDS011;20951;50.818;4.344;2023-04-30T00:38:34;14.68;;;11.27;;
34725;SDS011;20951;50.818;4.344;2023-04-30T00:41:00;17.25;;;11.15;;
34725;SDS011;20951;50.818;4.344;2023-04-30T00:43:26;14.15;;;10.95;;
34725;SDS011;20951;50.818;4.344;2023-04-30T00:45:52;14.70;;;10.63;;
34725;SDS011;20951;50.818;4.344;2023-04-30T00:48:18;17.08;;;10.75;;
34725;SDS011;20951;50.818;4.344;2023-04-30T00:50:47;15.32;;;10.98;;
34725;SDS011;20951;50.818;4.344;2023-04-30T00:53:13;16.15;;;10.45;;
34725;SDS011;20951;50.818;4.344;2023-04-30T00:55:40;16.27;;;10.00;;
34725;SDS011;20951;50.818;4.344;2023-04-30T00:58:06;14.98;;;10.43;;
34725;SDS011;20951;50.818;4.344;2023-04-30T01:00:32;13.30;;;10.07;;
34725;SDS011;20951;50.818;4.344;2023-04-30T01:02:59;13.73;;;9.80;;
34725;SDS011;20951;50.818;4.344;2023-04-30T01:05:25;13.52;;;10.13;;
34725;SDS011;20951;50.818;4.344;2023-04-30T01:07:51;15.10;;;10.32;;
34725;SDS011;20951;50.818;4.344;2023-04-30T01:10:29;13.55;;;10.20;;
34725;SDS011;20951;50.818;4.344;2023-04-30T01:13:02;12.93;;;10.00;;
34725;SDS011;20951;50.818;4.344;2023-04-30T01:15:59;12.60;;;9.65;;
34725;SDS011;20951;50.818;4.344;2023-04-30T01:18:48;12.55;;;9.38;;
34725;SDS011;20951;50.818;4.344;2023-04-30T01:21:26;14.85;;;9.73;;
34725;SDS011;20951;50.818;4.344;2023-04-30T01:29:34;13.63;;;9.20;;
34725;SDS011;20951;50.818;4.344;2023-04-30T01:32:03;12.48;;;9.10;;
34725;SDS011;20951;50.818;4.344;2023-04-30T01:34:29;14.27;;;9.18;;
34725;SDS011;20951;50.818;4.344;2023-04-30T01:37:03;12.40;;;8.57;;
34725;SDS011;20951;50.818;4.344;2023-04-30T01:39:47;13.93;;;8.88;;
34725;SDS011;20951;50.818;4.344;2023-04-30T01:42:24;14.25;;;9.45;;
34725;SDS011;20951;50.818;4.344;2023-04-30T01:48:24;15.82;;;9.68;;
34725;SDS011;20951;50.818;4.344;2023-04-30T01:53:45;13.07;;;9.80;;
34725;SDS011;20951;50.818;4.344;2023-04-30T01:56:13;17.80;;;10.38;;
34725;SDS011;20951;50.818;4.344;2023-04-30T01:59:02;15.80;;;10.63;;
34725;SDS011;20951;50.818;4.344;2023-04-30T02:01:30;13.23;;;10.75;;
34725;SDS011;20951;50.818;4.344;2023-04-30T02:03:57;16.55;;;11.15;;
34725;SDS011;20951;50.818;4.344;2023-04-30T02:06:24;13.90;;;10.10;;
34725;SDS011;20951;50.818;4.344;2023-04-30T02:08:54;14.85;;;10.48;;
34725;SDS011;20951;50.818;4.344;2023-04-30T02:11:23;16.20;;;11.27;;
34725;SDS011;20951;50.818;4.344;2023-04-30T02:13:50;16.27;;;11.38;;
34725;SDS011;20951;50.818;4.344;2023-04-30T02:16:16;17.10;;;11.25;;
34725;SDS011;20951;50.818;4.344;2023-04-30T02:18:42;16.80;;;11.73;;
34725;SDS011;20951;50.818;4.344;2023-04-30T02:21:08;17.40;;;12.02;;
34725;SDS011;20951;50.818;4.344;2023-04-30T02:23:34;15.38;;;11.57;;
34725;SDS011;20951;50.818;4.344;2023-04-30T02:26:00;17.10;;;11.48;;
34725;SDS011;20951;50.818;4.344;2023-04-30T02:28:27;16.33;;;12.05;;
34725;SDS011;20951;50.818;4.344;2023-04-30T02:30:53;17.40;;;11.90;;
34725;SDS011;20951;50.818;4.344;2023-04-30T02:33:19;18.30;;;12.25;;
34725;SDS011;20951;50.818;4.344;2023-04-30T02:35:45;16.02;;;12.05;;
34725;SDS011;20951;50.818;4.344;2023-04-30T02:38:11;16.40;;;11.60;;
34725;SDS011;20951;50.818;4.344;2023-04-30T02:40:37;20.42;;;11.93;;
34725;SDS011;20951;50.818;4.344;2023-04-30T02:43:05;16.58;;;11.98;;
34725;SDS011;20951;50.818;4.344;2023-04-30T02:45:31;16.63;;;11.20;;
34725;SDS011;20951;50.818;4.344;2023-04-30T02:47:57;15.55;;;11.68;;
34725;SDS011;20951;50.818;4.344;2023-04-30T02:50:23;18.67;;;11.75;;
34725;SDS011;20951;50.818;4.344;2023-04-30T02:52:49;17.83;;;12.13;;
34725;SDS011;20951;50.818;4.344;2023-04-30T02:55:15;16.42;;;11.73;;
34725;SDS011;20951;50.818;4.344;2023-04-30T02:57:42;15.27;;;11.23;;
34725;SDS011;20951;50.818;4.344;2023-04-30T03:00:08;16.08;;;12.20;;
34725;SDS011;20951;50.818;4.344;2023-04-30T03:02:35;16.52;;;11.63;;
34725;SDS011;20951;50.818;4.344;2023-04-30T03:05:01;15.57;;;11.40;;
34725;SDS011;20951;50.818;4.344;2023-04-30T03:07:28;15.88;;;11.25;;
34725;SDS011;20951;50.818;4.344;2023-04-30T03:09:54;16.58;;;11.35;;
34725;SDS011;20951;50.818;4.344;2023-04-30T03:12:20;14.40;;;11.27;;
34725;SDS011;20951;50.818;4.344;2023-04-30T03:14:47;16.08;;;10.73;;
34725;SDS011;20951;50.818;4.344;2023-04-30T03:17:13;15.85;;;10.75;;
34725;SDS011;20951;50.818;4.344;2023-04-30T03:19:38;16.73;;;10.80;;
34725;SDS011;20951;50.818;4.344;2023-04-30T03:22:04;16.27;;;10.90;;
34725;SDS011;20951;50.818;4.344;2023-04-30T03:24:30;15.57;;;10.70;;
34725;SDS011;20951;50.818;4.344;2023-04-30T03:26:56;15.27;;;10.35;;
34725;SDS011;20951;50.818;4.344;2023-04-30T03:29:22;14.40;;;10.85;;
34725;SDS011;20951;50.818;4.344;2023-04-30T03:31:48;17.25;;;10.82;;
34725;SDS011;20951;50.818;4.344;2023-04-30T03:34:15;15.30;;;10.77;;
34725;SDS011;20951;50.818;4.344;2023-04-30T03:36:41;16.73;;;10.77;;
34725;SDS011;20951;50.818;4.344;2023-04-30T03:39:07;16.17;;;11.00;;
34725;SDS011;20951;50.818;4.344;2023-04-30T03:41:34;18.70;;;10.85;;
34725;SDS011;20951;50.818;4.344;2023-04-30T03:44:00;17.48;;;11.45;;
34725;SDS011;20951;50.818;4.344;2023-04-30T03:46:26;16.02;;;11.13;;
34725;SDS011;20951;50.818;4.344;2023-04-30T03:48:52;18.17;;;12.05;;
34725;SDS011;20951;50.818;4.344;2023-04-30T03:51:19;16.23;;;11.63;;
34725;SDS011;20951;50.818;4.344;2023-04-30T03:53:46;18.40;;;11.68;;
34725;SDS011;20951;50.818;4.344;2023-04-30T03:56:12;16.80;;;12.35;;
34725;SDS011;20951;50.818;4.344;2023-04-30T03:58:39;16.65;;;12.48;;
34725;SDS011;20951;50.818;4.344;2023-04-30T04:01:05;18.00;;;12.32;;
34725;SDS011;20951;50.818;4.344;2023-04-30T04:03:32;24.67;;;12.40;;
34725;SDS011;20951;50.818;4.344;2023-04-30T04:05:59;16.45;;;11.90;;
34725;SDS011;20951;50.818;4.344;2023-04-30T04:08:25;17.75;;;12.07;;
34725;SDS011;20951;50.818;4.344;2023-04-30T04:10:51;15.68;;;12.18;;
34725;SDS011;20951;50.818;4.344;2023-04-30T04:13:17;20.45;;;14.13;;
34725;SDS011;20951;50.818;4.344;2023-04-30T04:15:43;19.25;;;13.43;;
34725;SDS011;20951;50.818;4.344;2023-04-30T04:18:09;20.73;;;13.77;;
34725;SDS011;20951;50.818;4.344;2023-04-30T04:20:35;23.67;;;13.95;;
34725;SDS011;20951;50.818;4.344;2023-04-30T04:23:01;17.90;;;13.40;;
34725;SDS011;20951;50.818;4.344;2023-04-30T04:25:27;19.52;;;13.80;;
34725;SDS011;20951;50.818;4.344;2023-04-30T04:27:53;21.88;;;14.80;;
34725;SDS011;20951;50.818;4.344;2023-04-30T04:30:20;20.27;;;13.77;;
34725;SDS011;20951;50.818;4.344;2023-04-30T04:32:45;17.80;;;13.48;;
34725;SDS011;20951;50.818;4.344;2023-04-30T04:35:14;23.15;;;14.50;;
34725;SDS011;20951;50.818;4.344;2023-04-30T04:37:40;20.33;;;13.52;;
34725;SDS011;20951;50.818;4.344;2023-04-30T04:40:07;20.95;;;14.18;;
34725;SDS011;20951;50.818;4.344;2023-04-30T04:42:34;19.83;;;14.77;;
34725;SDS011;20951;50.818;4.344;2023-04-30T04:45:02;20.52;;;14.63;;
34725;SDS011;20951;50.818;4.344;2023-04-30T04:47:32;21.15;;;14.77;;
34725;SDS011;20951;50.818;4.344;2023-04-30T04:49:58;18.50;;;14.70;;
34725;SDS011;20951;50.818;4.344;2023-04-30T04:52:24;20.08;;;14.70;;
34725;SDS011;20951;50.818;4.344;2023-04-30T04:54:50;22.60;;;15.27;;
34725;SDS011;20951;50.818;4.344;2023-04-30T04:57:17;22.35;;;15.55;;
34725;SDS011;20951;50.818;4.344;2023-04-30T04:59:43;22.90;;;14.75;;
34725;SDS011;20951;50.818;4.344;2023-04-30T05:02:09;21.08;;;15.07;;
34725;SDS011;20951;50.818;4.344;2023-04-30T05:04:35;22.85;;;15.30;;
34725;SDS011;20951;50.818;4.344;2023-04-30T05:07:01;25.08;;;17.08;;
34725;SDS011;20951;50.818;4.344;2023-04-30T05:09:27;21.70;;;16.08;;
34725;SDS011;20951;50.818;4.344;2023-04-30T05:11:53;21.77;;;16.95;;
34725;SDS011;20951;50.818;4.344;2023-04-30T05:14:19;25.25;;;16.38;;
34725;SDS011;20951;50.818;4.344;2023-04-30T05:16:45;22.23;;;16.35;;
34725;SDS011;20951;50.818;4.344;2023-04-30T05:19:12;21.00;;;16.10;;
34725;SDS011;20951;50.818;4.344;2023-04-30T05:21:39;22.75;;;16.55;;
34725;SDS011;20951;50.818;4.344;2023-04-30T05:24:06;25.67;;;17.08;;
34725;SDS011;20951;50.818;4.344;2023-04-30T05:26:32;25.25;;;17.27;;
34725;SDS011;20951;50.818;4.344;2023-04-30T05:28:58;24.92;;;16.70;;
34725;SDS011;20951;50.818;4.344;2023-04-30T05:31:23;26.45;;;18.88;;
34725;SDS011;20951;50.818;4.344;2023-04-30T05:33:49;24.00;;;18.08;;
34725;SDS011;20951;50.818;4.344;2023-04-30T05:36:15;23.60;;;17.48;;
34725;SDS011;20951;50.818;4.344;2023-04-30T05:38:41;24.33;;;17.23;;
34725;SDS011;20951;50.818;4.344;2023-04-30T05:41:09;24.02;;;17.20;;
34725;SDS011;20951;50.818;4.344;2023-04-30T05:43:36;25.77;;;16.77;;
34725;SDS011;20951;50.818;4.344;2023-04-30T05:46:03;22.15;;;16.10;;
34725;SDS011;20951;50.818;4.344;2023-04-30T05:48:29;21.15;;;15.38;;
34725;SDS011;20951;50.818;4.344;2023-04-30T05:50:57;24.00;;;15.30;;
34725;SDS011;20951;50.818;4.344;2023-04-30T05:53:23;20.05;;;15.57;;
34725;SDS011;20951;50.818;4.344;2023-04-30T05:55:49;18.55;;;14.07;;
34725;SDS011;20951;50.818;4.344;2023-04-30T05:58:15;17.90;;;14.20;;
34725;SDS011;20951;50.818;4.344;2023-04-30T06:00:41;19.08;;;14.57;;
34725;SDS011;20951;50.818;4.344;2023-04-30T06:03:07;19.33;;;15.07;;
34725;SDS011;20951;50.818;4.344;2023-04-30T06:05:33;17.73;;;14.10;;
34725;SDS011;20951;50.818;4.344;2023-04-30T06:07:59;17.05;;;14.77;;
34725;SDS011;20951;50.818;4.344;2023-04-30T06:10:24;16.65;;;13.85;;
34725;SDS011;20951;50.818;4.344;2023-04-30T06:12:50;17.67;;;13.85;;
34725;SDS011;20951;50.818;4.344;2023-04-30T06:15:16;18.27;;;13.70;;
34725;SDS011;20951;50.818;4.344;2023-04-30T06:17:42;16.40;;;14.30;;
34725;SDS011;20951;50.818;4.344;2023-04-30T06:20:08;16.70;;;14.23;;
34725;SDS011;20951;50.818;4.344;2023-04-30T06:22:35;16.52;;;14.63;;
34725;SDS011;20951;50.818;4.344;2023-04-30T06:25:01;16.60;;;14.63;;
34725;SDS011;20951;50.818;4.344;2023-04-30T06:27:29;16.65;;;14.50;;
34725;SDS011;20951;50.818;4.344;2023-04-30T06:29:56;18.20;;;14.65;;
34725;SDS011;20951;50.818;4.344;2023-04-30T06:32:22;20.00;;;15.40;;
34725;SDS011;20951;50.818;4.344;2023-04-30T06:34:48;16.67;;;14.73;;
34725;SDS011;20951;50.818;4.344;2023-04-30T06:37:14;19.50;;;15.05;;
34725;SDS011;20951;50.818;4.344;2023-04-30T06:39:40;18.23;;;15.07;;
34725;SDS011;20951;50.818;4.344;2023-04-30T06:42:06;19.05;;;15.07;;
34725;SDS011;20951;50.818;4.344;2023-04-30T06:44:32;18.10;;;15.38;;
34725;SDS011;20951;50.818;4.344;2023-04-30T06:46:58;17.58;;;15.55;;
34725;SDS011;20951;50.818;4.344;2023-04-30T06:49:23;19.55;;;15.73;;
34725;SDS011;20951;50.818;4.344;2023-04-30T06:51:49;18.15;;;16.15;;
34725;SDS011;20951;50.818;4.344;2023-04-30T06:54:15;20.98;;;16.15;;
34725;SDS011;20951;50.818;4.344;2023-04-30T06:56:41;20.38;;;16.05;;
34725;SDS011;20951;50.818;4.344;2023-04-30T06:59:11;18.38;;;15.50;;
34725;SDS011;20951;50.818;4.344;2023-04-30T07:01:37;20.33;;;16.88;;
34725;SDS011;20951;50.818;4.344;2023-04-30T07:04:03;18.98;;;16.98;;
34725;SDS011;20951;50.818;4.344;2023-04-30T07:06:29;20.60;;;17.13;;
34725;SDS011;20951;50.818;4.344;2023-04-30T07:08:55;18.27;;;16.38;;
34725;SDS011;20951;50.818;4.344;2023-04-30T07:11:21;19.92;;;16.45;;
34725;SDS011;20951;50.818;4.344;2023-04-30T07:13:47;20.35;;;15.85;;
34725;SDS011;20951;50.818;4.344;2023-04-30T07:16:13;21.33;;;16.23;;
34725;SDS011;20951;50.818;4.344;2023-04-30T07:18:41;19.00;;;16.63;;
34725;SDS011;20951;50.818;4.344;2023-04-30T07:21:07;20.05;;;17.77;;
34725;SDS011;20951;50.818;4.344;2023-04-30T07:23:33;21.40;;;17.90;;
34725;SDS011;20951;50.818;4.344;2023-04-30T07:25:59;20.25;;;18.00;;
34725;SDS011;20951;50.818;4.344;2023-04-30T07:28:25;20.58;;;18.38;;
34725;SDS011;20951;50.818;4.344;2023-04-30T07:30:51;19.63;;;17.52;;
34725;SDS011;20951;50.818;4.344;2023-04-30T07:33:17;21.58;;;17.88;;
34725;SDS011;20951;50.818;4.344;2023-04-30T07:35:43;20.40;;;18.30;;
34725;SDS011;20951;50.818;4.344;2023-04-30T07:38:08;19.40;;;17.38;;
34725;SDS011;20951;50.818;4.344;2023-04-30T07:40:35;18.73;;;16.67;;
34725;SDS011;20951;50.818;4.344;2023-04-30T07:43:01;17.85;;;16.15;;
34725;SDS011;20951;50.818;4.344;2023-04-30T07:45:28;18.92;;;16.67;;
34725;SDS011;20951;50.818;4.344;2023-04-30T07:47:55;18.27;;;16.08;;
34725;SDS011;20951;50.818;4.344;2023-04-30T07:50:21;20.42;;;16.33;;
34725;SDS011;20951;50.818;4.344;2023-04-30T07:52:48;17.92;;;15.95;;
34725;SDS011;20951;50.818;4.344;2023-04-30T07:55:14;19.83;;;16.25;;
34725;SDS011;20951;50.818;4.344;2023-04-30T07:57:40;18.52;;;16.50;;
34725;SDS011;20951;50.818;4.344;2023-04-30T08:00:09;17.80;;;15.88;;
34725;SDS011;20951;50.818;4.344;2023-04-30T08:02:36;18.20;;;16.27;;
34725;SDS011;20951;50.818;4.344;2023-04-30T08:05:02;17.35;;;15.60;;
34725;SDS011;20951;50.818;4.344;2023-04-30T08:07:28;17.20;;;15.13;;
34725;SDS011;20951;50.818;4.344;2023-04-30T08:09:53;17.00;;;15.10;;
34725;SDS011;20951;50.818;4.344;2023-04-30T08:12:19;16.55;;;14.85;;
34725;SDS011;20951;50.818;4.344;2023-04-30T08:14:45;17.50;;;15.02;;
34725;SDS011;20951;50.818;4.344;2023-04-30T08:17:12;16.42;;;14.13;;
34725;SDS011;20951;50.818;4.344;2023-04-30T08:19:40;16.65;;;14.35;;
34725;SDS011;20951;50.818;4.344;2023-04-30T08:22:06;15.70;;;14.00;;
34725;SDS011;20951;50.818;4.344;2023-04-30T08:24:32;15.63;;;13.75;;
34725;SDS011;20951;50.818;4.344;2023-04-30T08:26:58;15.98;;;14.27;;
34725;SDS011;20951;50.818;4.344;2023-04-30T08:29:27;15.30;;;13.80;;
34725;SDS011;20951;50.818;4.344;2023-04-30T08:31:56;16.13;;;13.18;;
34725;SDS011;20951;50.818;4.344;2023-04-30T08:34:29;16.23;;;13.93;;
34725;SDS011;20951;50.818;4.344;2023-04-30T08:36:58;14.20;;;12.70;;
34725;SDS011;20951;50.818;4.344;2023-04-30T08:39:27;14.90;;;13.30;;
34725;SDS011;20951;50.818;4.344;2023-04-30T08:41:56;16.27;;;13.10;;
34725;SDS011;20951;50.818;4.344;2023-04-30T08:44:28;14.20;;;12.65;;
34725;SDS011;20951;50.818;4.344;2023-04-30T08:46:55;13.25;;;11.48;;
34725;SDS011;20951;50.818;4.344;2023-04-30T08:49:24;13.40;;;11.63;;
34725;SDS011;20951;50.818;4.344;2023-04-30T08:51:52;13.52;;;12.13;;
34725;SDS011;20951;50.818;4.344;2023-04-30T08:54:18;14.15;;;11.88;;
34725;SDS011;20951;50.818;4.344;2023-04-30T08:56:45;14.32;;;12.23;;
34725;SDS011;20951;50.818;4.344;2023-04-30T08:59:11;12.38;;;9.73;;
34725;SDS011;20951;50.818;4.344;2023-04-30T09:01:37;11.75;;;9.00;;
34725;SDS011;20951;50.818;4.344;2023-04-30T09:04:04;12.55;;;9.60;;
34725;SDS011;20951;50.818;4.344;2023-04-30T09:06:30;12.50;;;9.63;;
34725;SDS011;20951;50.818;4.344;2023-04-30T09:08:56;10.70;;;8.93;;
34725;SDS011;20951;50.818;4.344;2023-04-30T09:11:31;11.07;;;8.48;;
34725;SDS011;20951;50.818;4.344;2023-04-30T09:13:58;11.20;;;8.57;;
34725;SDS011;20951;50.818;4.344;2023-04-30T09:16:28;9.52;;;7.47;;
34725;SDS011;20951;50.818;4.344;2023-04-30T09:19:09;8.75;;;7.07;;
34725;SDS011;20951;50.818;4.344;2023-04-30T09:21:46;8.88;;;7.25;;
34725;SDS011;20951;50.818;4.344;2023-04-30T09:24:12;9.98;;;6.93;;
34725;SDS011;20951;50.818;4.344;2023-04-30T09:26:38;9.05;;;7.97;;
34725;SDS011;20951;50.818;4.344;2023-04-30T09:29:04;8.43;;;6.63;;
34725;SDS011;20951;50.818;4.344;2023-04-30T09:31:34;9.23;;;7.28;;
34725;SDS011;20951;50.818;4.344;2023-04-30T09:34:02;8.52;;;6.20;;
34725;SDS011;20951;50.818;4.344;2023-04-30T09:36:28;9.32;;;6.75;;
34725;SDS011;20951;50.818;4.344;2023-04-30T09:38:55;10.15;;;7.25;;
34725;SDS011;20951;50.818;4.344;2023-04-30T09:41:25;11.10;;;8.75;;
34725;SDS011;20951;50.818;4.344;2023-04-30T09:43:53;11.18;;;9.40;;
34725;SDS011;20951;50.818;4.344;2023-04-30T09:46:20;10.93;;;9.02;;
34725;SDS011;20951;50.818;4.344;2023-04-30T09:51:23;11.20;;;8.70;;
34725;SDS011;20951;50.818;4.344;2023-04-30T09:53:51;14.52;;;9.63;;
34725;SDS011;20951;50.818;4.344;2023-04-30T09:56:24;11.35;;;10.13;;
34725;SDS011;20951;50.818;4.344;2023-04-30T09:58:51;10.43;;;9.32;;
34725;SDS011;20951;50.818;4.344;2023-04-30T10:01:19;11.40;;;10.20;;
34725;SDS011;20951;50.818;4.344;2023-04-30T10:03:46;11.98;;;8.82;;
34725;SDS011;20951;50.818;4.344;2023-04-30T10:06:13;10.10;;;8.27;;
34725;SDS011;20951;50.818;4.344;2023-04-30T10:08:45;8.40;;;7.30;;
34725;SDS011;20951;50.818;4.344;2023-04-30T10:11:19;10.50;;;7.03;;
34725;SDS011;20951;50.818;4.344;2023-04-30T10:19:16;8.13;;;6.60;;
34725;SDS011;20951;50.818;4.344;2023-04-30T10:21:45;9.75;;;6.72;;
34725;SDS011;20951;50.818;4.344;2023-04-30T10:24:12;8.48;;;6.85;;
34725;SDS011;20951;50.818;4.344;2023-04-30T10:26:39;10.57;;;6.55;;
34725;SDS011;20951;50.818;4.344;2023-04-30T10:29:06;8.68;;;6.40;;
34725;SDS011;20951;50.818;4.344;2023-04-30T10:31:33;7.38;;;6.32;;
34725;SDS011;20951;50.818;4.344;2023-04-30T10:34:13;7.97;;;6.50;;
34725;SDS011;20951;50.818;4.344;2023-04-30T10:37:12;9.73;;;5.45;;
34725;SDS011;20951;50.818;4.344;2023-04-30T10:39:55;7.95;;;5.30;;
34725;SDS011;20951;50.818;4.344;2023-04-30T10:42:21;8.07;;;5.75;;
34725;SDS011;20951;50.818;4.344;2023-04-30T10:44:47;8.40;;;5.78;;
34725;SDS011;20951;50.818;4.344;2023-04-30T10:47:13;8.40;;;6.00;;
34725;SDS011;20951;50.818;4.344;2023-04-30T10:49:44;6.93;;;5.70;;
34725;SDS011;20951;50.818;4.344;2023-04-30T10:52:14;9.07;;;6.47;;
34725;SDS011;20951;50.818;4.344;2023-04-30T10:54:54;8.50;;;5.22;;
34725;SDS011;20951;50.818;4.344;2023-04-30T10:57:20;7.38;;;5.82;;
34725;SDS011;20951;50.818;4.344;2023-04-30T10:59:51;7.35;;;5.20;;
34725;SDS011;20951;50.818;4.344;2023-04-30T11:02:18;9.45;;;6.13;;
34725;SDS011;20951;50.818;4.344;2023-04-30T11:07:32;7.30;;;5.30;;
34725;SDS011;20951;50.818;4.344;2023-04-30T11:09:59;6.30;;;4.35;;
34725;SDS011;20951;50.818;4.344;2023-04-30T11:12:26;7.00;;;4.63;;
34725;SDS011;20951;50.818;4.344;2023-04-30T11:14:59;6.40;;;4.95;;
34725;SDS011;20951;50.818;4.344;2023-04-30T11:17:36;6.57;;;4.30;;
34725;SDS011;20951;50.818;4.344;2023-04-30T11:20:03;6.18;;;4.90;;
34725;SDS011;20951;50.818;4.344;2023-04-30T11:22:30;6.95;;;5.57;;
34725;SDS011;20951;50.818;4.344;2023-04-30T11:25:07;7.68;;;5.85;;
34725;SDS011;20951;50.818;4.344;2023-04-30T11:27:35;8.27;;;5.40;;
34725;SDS011;20951;50.818;4.344;2023-04-30T11:30:03;9.18;;;4.70;;
34725;SDS011;20951;50.818;4.344;2023-04-30T11:32:35;6.15;;;4.00;;
34725;SDS011;20951;50.818;4.344;2023-04-30T11:35:03;5.88;;;4.20;;
34725;SDS011;20951;50.818;4.344;2023-04-30T11:37:35;6.47;;;5.03;;
34725;SDS011;20951;50.818;4.344;2023-04-30T11:40:12;6.50;;;4.75;;
34725;SDS011;20951;50.818;4.344;2023-04-30T11:42:39;5.85;;;4.50;;
34725;SDS011;20951;50.818;4.344;2023-04-30T11:45:09;6.82;;;4.25;;
34725;SDS011;20951;50.818;4.344;2023-04-30T11:47:49;6.55;;;4.43;;
34725;SDS011;20951;50.818;4.344;2023-04-30T11:50:17;7.95;;;5.43;;
34725;SDS011;20951;50.818;4.344;2023-04-30T11:52:54;7.07;;;5.00;;
34725;SDS011;20951;50.818;4.344;2023-04-30T11:55:22;6.10;;;5.40;;
34725;SDS011;20951;50.818;4.344;2023-04-30T11:57:50;7.70;;;5.47;;
34725;SDS011;20951;50.818;4.344;2023-04-30T12:00:23;7.13;;;4.97;;
34725;SDS011;20951;50.818;4.344;2023-04-30T12:02:52;6.35;;;5.20;;
34725;SDS011;20951;50.818;4.344;2023-04-30T12:05:20;6.60;;;5.35;;
34725;SDS011;20951;50.818;4.344;2023-04-30T12:08:06;7.00;;;5.88;;
34725;SDS011;20951;50.818;4.344;2023-04-30T12:10:33;7.20;;;4.90;;
34725;SDS011;20951;50.818;4.344;2023-04-30T12:13:02;6.22;;;5.28;;
34725;SDS011;20951;50.818;4.344;2023-04-30T12:15:28;7.53;;;4.82;;
34725;SDS011;20951;50.818;4.344;2023-04-30T12:17:58;6.53;;;5.05;;
34725;SDS011;20951;50.818;4.344;2023-04-30T12:20:25;7.53;;;5.53;;
34725;SDS011;20951;50.818;4.344;2023-04-30T12:22:53;6.75;;;4.90;;
34725;SDS011;20951;50.818;4.344;2023-04-30T12:25:20;7.93;;;4.95;;
34725;SDS011;20951;50.818;4.344;2023-04-30T12:30:13;6.13;;;5.10;;
34725;SDS011;20951;50.818;4.344;2023-04-30T12:32:44;5.35;;;4.50;;
34725;SDS011;20951;50.818;4.344;2023-04-30T12:35:14;8.07;;;4.40;;
34725;SDS011;20951;50.818;4.344;2023-04-30T12:37:45;7.05;;;5.13;;
34725;SDS011;20951;50.818;4.344;2023-04-30T12:40:16;6.13;;;4.68;;
34725;SDS011;20951;50.818;4.344;2023-04-30T12:42:47;6.28;;;5.28;;
34725;SDS011;20951;50.818;4.344;2023-04-30T12:45:37;6.22;;;4.90;;
34725;SDS011;20951;50.818;4.344;2023-04-30T12:48:09;6.82;;;4.50;;
34725;SDS011;20951;50.818;4.344;2023-04-30T12:50:35;5.60;;;3.88;;
34725;SDS011;20951;50.818;4.344;2023-04-30T12:53:02;5.38;;;4.68;;
34725;SDS011;20951;50.818;4.344;2023-04-30T12:55:28;6.72;;;4.85;;
34725;SDS011;20951;50.818;4.344;2023-04-30T12:58:08;6.40;;;4.38;;
34725;SDS011;20951;50.818;4.344;2023-04-30T13:03:09;6.13;;;4.00;;
34725;SDS011;20951;50.818;4.344;2023-04-30T13:05:35;5.40;;;4.07;;
34725;SDS011;20951;50.818;4.344;2023-04-30T13:08:01;5.35;;;3.60;;
34725;SDS011;20951;50.818;4.344;2023-04-30T13:10:32;4.35;;;3.30;;
34725;SDS011;20951;50.818;4.344;2023-04-30T13:12:58;4.82;;;3.33;;
34725;SDS011;20951;50.818;4.344;2023-04-30T13:15:24;4.72;;;2.95;;
34725;SDS011;20951;50.818;4.344;2023-04-30T13:17:51;5.10;;;2.95;;
34725;SDS011;20951;50.818;4.344;2023-04-30T13:20:17;5.55;;;3.90;;
34725;SDS011;20951;50.818;4.344;2023-04-30T13:22:44;5.35;;;3.70;;
34725;SDS011;20951;50.818;4.344;2023-04-30T13:25:10;4.60;;;3.25;;
34725;SDS011;20951;50.818;4.344;2023-04-30T13:27:36;4.72;;;3.10;;
34725;SDS011;20951;50.818;4.344;2023-04-30T13:30:02;4.70;;;3.00;;
34725;SDS011;20951;50.818;4.344;2023-04-30T13:32:28;6.20;;;3.45;;
34725;SDS011;20951;50.818;4.344;2023-04-30T13:34:54;6.45;;;3.13;;
34725;SDS011;20951;50.818;4.344;2023-04-30T13:37:20;4.60;;;3.15;;
34725;SDS011;20951;50.818;4.344;2023-04-30T13:39:46;6.05;;;3.38;;
34725;SDS011;20951;50.818;4.344;2023-04-30T13:42:13;5.10;;;3.30;;
34725;SDS011;20951;50.818;4.344;2023-04-30T13:44:39;3.55;;;2.40;;
34725;SDS011;20951;50.818;4.344;2023-04-30T13:47:09;4.40;;;2.30;;
34725;SDS011;20951;50.818;4.344;2023-04-30T13:49:35;5.38;;;2.78;;
34725;SDS011;20951;50.818;4.344;2023-04-30T13:52:05;4.15;;;2.58;;
34725;SDS011;20951;50.818;4.344;2023-04-30T13:54:30;3.50;;;2.40;;
34725;SDS011;20951;50.818;4.344;2023-04-30T13:56:57;4.35;;;2.42;;
34725;SDS011;20951;50.818;4.344;2023-04-30T13:59:24;4.95;;;2.70;;
34725;SDS011;20951;50.818;4.344;2023-04-30T14:01:50;4.60;;;2.85;;
34725;SDS011;20951;50.818;4.344;2023-04-30T14:04:16;3.78;;;2.75;;
34725;SDS011;20951;50.818;4.344;2023-04-30T14:06:44;4.68;;;2.63;;
34725;SDS011;20951;50.818;4.344;2023-04-30T14:09:12;3.75;;;2.60;;
34725;SDS011;20951;50.818;4.344;2023-04-30T14:11:38;3.20;;;2.40;;
34725;SDS011;20951;50.818;4.344;2023-04-30T14:14:05;5.18;;;2.85;;
34725;SDS011;20951;50.818;4.344;2023-04-30T14:16:33;4.60;;;3.15;;
34725;SDS011;20951;50.818;4.344;2023-04-30T14:18:59;3.53;;;2.45;;
34725;SDS011;20951;50.818;4.344;2023-04-30T14:21:29;5.90;;;2.63;;
34725;SDS011;20951;50.818;4.344;2023-04-30T14:23:55;6.22;;;3.20;;
34725;SDS011;20951;50.818;4.344;2023-04-30T14:26:21;5.03;;;3.67;;
34725;SDS011;20951;50.818;4.344;2023-04-30T14:28:47;4.30;;;2.40;;
34725;SDS011;20951;50.818;4.344;2023-04-30T14:31:13;4.82;;;2.70;;
34725;SDS011;20951;50.818;4.344;2023-04-30T14:33:38;5.47;;;2.53;;
34725;SDS011;20951;50.818;4.344;2023-04-30T14:36:04;6.78;;;2.85;;
34725;SDS011;20951;50.818;4.344;2023-04-30T14:38:31;4.70;;;2.70;;
34725;SDS011;20951;50.818;4.344;2023-04-30T14:40:58;4.13;;;2.95;;
34725;SDS011;20951;50.818;4.344;2023-04-30T14:43:24;5.10;;;3.20;;
34725;SDS011;20951;50.818;4.344;2023-04-30T14:45:50;4.47;;;2.85;;
34725;SDS011;20951;50.818;4.344;2023-04-30T14:48:17;4.75;;;2.53;;
34725;SDS011;20951;50.818;4.344;2023-04-30T14:50:43;3.95;;;2.28;;
34725;SDS011;20951;50.818;4.344;2023-04-30T14:53:09;3.30;;;2.40;;
34725;SDS011;20951;50.818;4.344;2023-04-30T14:55:36;3.47;;;2.10;;
34725;SDS011;20951;50.818;4.344;2023-04-30T14:58:02;4.93;;;2.80;;
34725;SDS011;20951;50.818;4.344;2023-04-30T15:00:29;4.20;;;2.80;;
34725;SDS011;20951;50.818;4.344;2023-04-30T15:02:57;4.28;;;2.40;;